Time,TemperatureF,DewpointF,PressureIn,WindDirection,WindDirectionDegrees,WindSpeedMPH,WindSpeedGustMPH,Humidity,HourlyPrecipIn,Conditions,Clouds,dailyrainin,SoftwareType,DateUTC
2013-05-09 00:02:00,61.0,56.0,30.01,SSW,194,0.0,0.0,83,0.00,,,0.01,,2013-05-09 05:02:00,
2013-05-09 00:12:00,61.0,56.0,30.01,SSW,194,0.0,0.0,83,0.00,,,0.01,,2013-05-09 05:12:00,
2013-05-09 00:22:00,63.0,57.0,30.01,South,184,0.0,0.0,80,0.00,,,0.01,,2013-05-09 05:22:00,
2013-05-09 00:32:00,63.0,58.0,30.01,South,184,0.0,0.0,83,0.00,,,0.01,,2013-05-09 05:32:00,
2013-05-09 00:42:00,63.0,58.0,30.01,South,184,0.0,0.0,83,0.00,,,0.01,,2013-05-09 05:42:00,
2013-05-09 00:51:00,63.0,58.0,30.01,South,184,0.0,0.0,85,0.00,,,0.01,,2013-05-09 05:51:00,
2013-05-09 01:02:00,62.0,57.0,30.02,South,184,0.0,0.0,85,0.00,,,0.01,,2013-05-09 06:02:00,
2013-05-09 01:12:00,62.0,57.0,30.02,South,184,0.0,0.0,85,0.00,,,0.01,,2013-05-09 06:12:00,
2013-05-09 01:21:00,63.0,58.0,30.01,South,184,0.0,0.0,85,0.00,,,0.01,,2013-05-09 06:21:00,
2013-05-09 01:32:00,62.0,57.0,30.01,South,184,0.0,0.0,84,0.00,,,0.01,,2013-05-09 06:32:00,
2013-05-09 01:42:00,62.0,57.0,30.01,South,184,0.0,0.0,84,0.00,,,0.01,,2013-05-09 06:42:00,
2013-05-09 01:52:00,63.0,58.0,30.01,South,184,0.0,0.0,84,0.00,,,0.01,,2013-05-09 06:52:00,
2013-05-09 02:01:00,63.0,57.0,30.01,South,184,0.0,0.0,82,0.00,,,0.01,,2013-05-09 07:01:00,
2013-05-09 02:12:00,63.0,57.0,30.01,South,184,0.0,0.0,82,0.00,,,0.01,,2013-05-09 07:12:00,
2013-05-09 02:21:00,63.0,57.0,30.01,South,184,0.0,0.0,82,0.00,,,0.01,,2013-05-09 07:21:00,
2013-05-09 02:32:00,63.0,57.0,30.01,South,184,0.0,0.0,82,0.00,,,0.01,,2013-05-09 07:32:00,
2013-05-09 02:42:00,63.0,57.0,30.01,South,184,0.0,0.0,82,0.00,,,0.01,,2013-05-09 07:42:00,
2013-05-09 02:52:00,63.0,58.0,30.01,South,184,0.0,0.0,83,0.00,,,0.01,,2013-05-09 07:52:00,
2013-05-09 03:02:00,63.0,58.0,30.00,South,184,0.0,0.0,84,0.00,,,0.01,,2013-05-09 08:02:00,
2013-05-09 03:11:00,63.0,58.0,30.00,South,184,0.0,0.0,84,0.00,,,0.01,,2013-05-09 08:11:00,
2013-05-09 03:21:00,63.0,58.0,30.01,South,184,0.0,0.0,84,0.00,,,0.01,,2013-05-09 08:21:00,
2013-05-09 03:32:00,63.0,58.0,30.00,South,184,0.0,0.0,84,0.00,,,0.01,,2013-05-09 08:32:00,
2013-05-09 03:42:00,63.0,58.0,30.00,South,184,0.0,0.0,84,0.00,,,0.01,,2013-05-09 08:42:00,
2013-05-09 03:51:00,62.0,57.0,30.01,South,184,0.0,0.0,85,0.00,,,0.01,,2013-05-09 08:51:00,
2013-05-09 04:02:00,62.0,57.0,30.01,South,184,0.0,0.0,85,0.00,,,0.01,,2013-05-09 09:02:00,
2013-05-09 04:11:00,62.0,57.0,30.01,South,184,0.0,0.0,85,0.00,,,0.01,,2013-05-09 09:11:00,
2013-05-09 04:21:00,63.0,58.0,30.01,South,184,0.0,0.0,84,0.00,,,0.01,,2013-05-09 09:21:00,
2013-05-09 04:32:00,62.0,57.0,30.01,South,184,0.0,0.0,85,0.00,,,0.01,,2013-05-09 09:32:00,
2013-05-09 04:42:00,62.0,57.0,30.01,South,184,0.0,0.0,85,0.00,,,0.01,,2013-05-09 09:42:00,
2013-05-09 04:52:00,62.0,58.0,30.01,South,184,0.0,0.0,86,0.00,,,0.01,,2013-05-09 09:52:00,
2013-05-09 05:02:00,62.0,58.0,30.01,South,184,0.0,0.0,86,0.00,,,0.01,,2013-05-09 10:02:00,
2013-05-09 05:12:00,62.0,58.0,30.01,South,184,0.0,0.0,86,0.00,,,0.01,,2013-05-09 10:12:00,
2013-05-09 05:22:00,62.0,57.0,30.01,South,184,0.0,0.0,85,0.00,,,0.01,,2013-05-09 10:22:00,
2013-05-09 05:33:00,63.0,58.0,30.01,South,184,0.0,0.0,84,0.00,,,0.01,,2013-05-09 10:33:00,
2013-05-09 05:42:00,63.0,58.0,30.01,South,184,0.0,0.0,84,0.00,,,0.01,,2013-05-09 10:42:00,
2013-05-09 05:52:00,63.0,58.0,30.01,South,173,0.0,0.0,83,0.00,,,0.01,,2013-05-09 10:52:00,
2013-05-09 06:02:00,63.0,57.0,30.01,South,184,0.0,0.0,82,0.00,,,0.01,,2013-05-09 11:02:00,
2013-05-09 06:12:00,63.0,57.0,30.01,South,184,0.0,0.0,82,0.00,,,0.01,,2013-05-09 11:12:00,
2013-05-09 06:22:00,63.0,58.0,30.02,SW,227,0.0,0.0,83,0.00,,,0.01,,2013-05-09 11:22:00,
2013-05-09 06:32:00,63.0,59.0,30.01,SW,227,0.0,0.0,86,0.00,,,0.01,,2013-05-09 11:32:00,
2013-05-09 06:41:00,63.0,59.0,30.01,SW,227,0.0,0.0,86,0.00,,,0.01,,2013-05-09 11:41:00,
2013-05-09 06:51:00,62.0,58.0,30.01,SW,227,0.0,0.0,88,0.00,,,0.01,,2013-05-09 11:51:00,
2013-05-09 07:01:00,62.0,59.0,30.01,SW,227,0.0,0.0,90,0.00,,,0.01,,2013-05-09 12:01:00,
2013-05-09 07:11:00,62.0,59.0,30.01,SW,227,0.0,0.0,90,0.00,,,0.01,,2013-05-09 12:11:00,
2013-05-09 07:22:00,62.0,59.0,30.02,SW,227,0.0,0.0,90,0.00,,,0.01,,2013-05-09 12:22:00,
2013-05-09 07:32:00,63.0,60.0,30.02,SW,227,0.0,0.0,91,0.00,,,0.00,,2013-05-09 12:32:00,
2013-05-09 07:42:00,63.0,60.0,30.02,SW,227,0.0,0.0,91,0.00,,,0.00,,2013-05-09 12:42:00,
2013-05-09 07:52:00,64.0,61.0,30.02,SW,227,0.0,0.0,91,0.00,,,0.00,,2013-05-09 12:52:00,
2013-05-09 08:01:00,66.0,61.0,30.02,SSW,192,0.0,0.0,83,0.00,,,0.00,,2013-05-09 13:01:00,
2013-05-09 08:12:00,66.0,61.0,30.02,SSW,192,0.0,0.0,83,0.00,,,0.00,,2013-05-09 13:12:00,
2013-05-09 08:21:00,66.0,60.0,30.02,SSW,194,0.0,0.0,82,0.00,,,0.00,,2013-05-09 13:21:00,
2013-05-09 08:32:00,67.0,61.0,30.02,SSW,192,0.0,0.0,80,0.00,,,0.00,,2013-05-09 13:32:00,
2013-05-09 08:42:00,67.0,61.0,30.02,SSW,192,0.0,0.0,80,0.00,,,0.00,,2013-05-09 13:42:00,
2013-05-09 08:52:00,67.0,61.0,30.02,SSW,209,0.0,0.0,80,0.00,,,0.00,,2013-05-09 13:52:00,
2013-05-09 09:01:00,68.0,61.0,30.02,SSW,197,0.0,7.0,78,0.00,,,0.00,,2013-05-09 14:01:00,
2013-05-09 09:11:00,68.0,61.0,30.02,SSW,197,0.0,7.0,78,0.00,,,0.00,,2013-05-09 14:11:00,
2013-05-09 09:21:00,70.0,62.0,30.01,SSW,205,0.0,7.0,75,0.00,,,0.00,,2013-05-09 14:21:00,
2013-05-09 09:32:00,72.0,62.0,30.02,South,188,0.0,1.0,70,0.00,,,0.00,,2013-05-09 14:32:00,
2013-05-09 09:41:00,72.0,62.0,30.02,South,188,0.0,1.0,70,0.00,,,0.00,,2013-05-09 14:41:00,
2013-05-09 09:52:00,72.0,62.0,30.02,SSW,202,7.0,12.0,70,0.00,,,0.00,,2013-05-09 14:52:00,
2013-05-09 10:01:00,73.0,61.0,30.02,SSW,202,0.0,10.0,67,0.00,,,0.00,,2013-05-09 15:01:00,
2013-05-09 10:11:00,73.0,61.0,30.02,SSW,202,0.0,10.0,67,0.00,,,0.00,,2013-05-09 15:11:00,
2013-05-09 10:22:00,74.0,61.0,30.01,ESE,120,0.0,10.0,65,0.00,,,0.00,,2013-05-09 15:22:00,
2013-05-09 10:33:00,75.0,62.0,30.02,SSE,166,6.0,13.0,63,0.00,,,0.00,,2013-05-09 15:33:00,
2013-05-09 10:43:00,75.0,62.0,30.02,SSE,166,6.0,13.0,63,0.00,,,0.00,,2013-05-09 15:43:00,
2013-05-09 10:52:00,76.0,63.0,30.02,South,183,0.0,10.0,64,0.00,,,0.00,,2013-05-09 15:52:00,
2013-05-09 11:03:00,76.0,62.0,30.02,SW,217,7.0,12.0,63,0.00,,,0.00,,2013-05-09 16:03:00,
2013-05-09 11:12:00,76.0,62.0,30.02,SW,217,7.0,12.0,63,0.00,,,0.00,,2013-05-09 16:12:00,
2013-05-09 11:22:00,76.0,62.0,30.02,SSW,196,10.0,13.0,61,0.00,,,0.00,,2013-05-09 16:22:00,
2013-05-09 11:33:00,76.0,62.0,30.02,SSW,204,6.0,14.0,62,0.00,,,0.00,,2013-05-09 16:33:00,
2013-05-09 11:42:00,76.0,62.0,30.02,SSW,204,6.0,14.0,62,0.00,,,0.00,,2013-05-09 16:42:00,
2013-05-09 11:52:00,77.0,62.0,30.02,SSW,205,1.0,13.0,60,0.00,,,0.00,,2013-05-09 16:52:00,
2013-05-09 12:02:00,77.0,60.0,30.01,SSW,195,10.0,15.0,56,0.00,,,0.00,,2013-05-09 17:02:00,
2013-05-09 12:12:00,77.0,60.0,30.01,SSW,195,10.0,15.0,56,0.00,,,0.00,,2013-05-09 17:12:00,
2013-05-09 12:21:00,76.0,61.0,30.01,SE,127,5.0,13.0,59,0.00,,,0.00,,2013-05-09 17:21:00,
2013-05-09 12:32:00,77.0,62.0,30.01,SSW,202,11.0,18.0,59,0.00,,,0.00,,2013-05-09 17:32:00,
2013-05-09 12:42:00,77.0,62.0,30.01,SSW,202,11.0,18.0,59,0.00,,,0.00,,2013-05-09 17:42:00,
2013-05-09 12:55:00,77.0,61.0,30.00,SW,217,10.0,17.0,57,0.00,,,0.00,,2013-05-09 17:55:00,
2013-05-09 13:01:00,77.0,61.0,29.99,SSE,161,8.0,18.0,58,0.00,,,0.00,,2013-05-09 18:01:00,
2013-05-09 13:12:00,77.0,61.0,29.99,SSE,161,8.0,18.0,58,0.00,,,0.00,,2013-05-09 18:12:00,
2013-05-09 13:21:00,76.0,61.0,29.99,SSW,199,10.0,17.0,59,0.00,,,0.00,,2013-05-09 18:21:00,
2013-05-09 13:32:00,69.0,63.0,30.01,South,191,0.0,24.0,81,0.02,,,0.02,,2013-05-09 18:32:00,
2013-05-09 13:42:00,69.0,63.0,30.01,South,191,0.0,24.0,81,0.02,,,0.02,,2013-05-09 18:42:00,
2013-05-09 13:52:00,71.0,66.0,29.98,ESE,111,1.0,8.0,83,0.02,,,0.02,,2013-05-09 18:52:00,
2013-05-09 14:01:00,71.0,64.0,29.98,SE,132,0.0,0.0,79,0.02,,,0.02,,2013-05-09 19:01:00,
2013-05-09 14:12:00,71.0,64.0,29.98,SE,132,0.0,0.0,79,0.02,,,0.02,,2013-05-09 19:12:00,
2013-05-09 14:21:00,72.0,63.0,29.97,South,174,0.0,10.0,74,0.02,,,0.02,,2013-05-09 19:21:00,
2013-05-09 14:31:00,72.0,64.0,29.96,South,178,0.0,1.0,75,0.00,,,0.02,,2013-05-09 19:31:00,
2013-05-09 14:41:00,72.0,64.0,29.96,South,178,0.0,1.0,75,0.00,,,0.02,,2013-05-09 19:41:00,
2013-05-09 14:52:00,72.0,64.0,29.95,SSE,156,0.0,0.0,75,0.00,,,0.02,,2013-05-09 19:52:00,
2013-05-09 15:01:00,74.0,65.0,29.94,South,169,1.0,8.0,74,0.00,,,0.02,,2013-05-09 20:01:00,
2013-05-09 15:11:00,74.0,65.0,29.94,South,169,1.0,8.0,74,0.00,,,0.02,,2013-05-09 20:11:00,
2013-05-09 15:22:00,75.0,65.0,29.93,SE,128,0.0,10.0,72,0.00,,,0.02,,2013-05-09 20:22:00,
2013-05-09 15:32:00,76.0,66.0,29.93,South,179,0.0,7.0,71,0.00,,,0.02,,2013-05-09 20:32:00,
2013-05-09 15:42:00,76.0,64.0,29.92,SE,127,2.0,9.0,66,0.00,,,0.02,,2013-05-09 20:42:00,
2013-05-09 15:52:00,76.0,64.0,29.92,SE,127,2.0,9.0,66,0.00,,,0.02,,2013-05-09 20:52:00,
2013-05-09 16:02:00,78.0,64.0,29.91,SSW,196,10.0,17.0,62,0.00,,,0.02,,2013-05-09 21:02:00,
2013-05-09 16:11:00,78.0,64.0,29.91,SSW,196,10.0,17.0,62,0.00,,,0.02,,2013-05-09 21:11:00,
2013-05-09 16:22:00,77.0,63.0,29.91,SSW,207,9.0,20.0,62,0.00,,,0.02,,2013-05-09 21:22:00,
2013-05-09 16:32:00,78.0,64.0,29.91,SSE,157,8.0,20.0,62,0.00,,,0.02,,2013-05-09 21:32:00,
2013-05-09 16:43:00,78.0,63.0,29.91,South,190,9.0,18.0,61,0.00,,,0.02,,2013-05-09 21:43:00,
2013-05-09 16:52:00,78.0,63.0,29.91,South,190,9.0,18.0,61,0.00,,,0.02,,2013-05-09 21:52:00,
2013-05-09 17:03:00,78.0,64.0,29.90,SSW,196,9.0,18.0,63,0.00,,,0.02,,2013-05-09 22:03:00,
2013-05-09 17:12:00,77.0,64.0,29.89,SE,125,4.0,12.0,65,0.00,,,0.02,,2013-05-09 22:12:00,
2013-05-09 17:23:00,77.0,64.0,29.89,SE,125,4.0,12.0,65,0.00,,,0.02,,2013-05-09 22:23:00,
2013-05-09 17:33:00,77.0,64.0,29.89,SSE,162,3.0,12.0,65,0.00,,,0.02,,2013-05-09 22:33:00,
2013-05-09 17:42:00,76.0,64.0,29.89,South,174,4.0,11.0,67,0.00,,,0.02,,2013-05-09 22:42:00,
2013-05-09 17:52:00,76.0,64.0,29.89,South,174,4.0,11.0,67,0.00,,,0.02,,2013-05-09 22:52:00,
2013-05-09 18:02:00,75.0,63.0,29.88,SSE,148,7.0,13.0,66,0.00,,,0.02,,2013-05-09 23:02:00,
2013-05-09 18:12:00,75.0,63.0,29.88,SSE,148,7.0,13.0,66,0.00,,,0.02,,2013-05-09 23:12:00,
2013-05-09 18:21:00,74.0,62.0,29.88,South,179,6.0,14.0,67,0.00,,,0.02,,2013-05-09 23:21:00,
2013-05-09 18:32:00,74.0,64.0,29.88,South,175,3.0,14.0,70,0.00,,,0.02,,2013-05-09 23:32:00,
2013-05-09 18:42:00,74.0,64.0,29.88,South,175,3.0,14.0,70,0.00,,,0.02,,2013-05-09 23:42:00,
2013-05-09 18:52:00,73.0,63.0,29.88,SSE,151,0.0,10.0,72,0.00,,,0.02,,2013-05-09 23:52:00,
2013-05-09 19:01:00,73.0,64.0,29.89,ESE,121,2.0,12.0,74,0.00,,,0.02,,2013-05-10 00:01:00,
2013-05-09 19:11:00,73.0,65.0,29.89,SSE,150,5.0,10.0,75,0.00,,,0.02,,2013-05-10 00:11:00,
2013-05-09 19:22:00,73.0,65.0,29.89,SSE,150,5.0,10.0,75,0.00,,,0.02,,2013-05-10 00:22:00,
2013-05-09 19:32:00,72.0,64.0,29.89,SSW,196,7.0,11.0,76,0.00,,,0.02,,2013-05-10 00:32:00,
2013-05-09 19:42:00,72.0,62.0,29.89,South,173,0.0,1.0,70,0.00,,,0.02,,2013-05-10 00:42:00,
2013-05-09 19:52:00,72.0,62.0,29.89,South,173,0.0,1.0,70,0.00,,,0.02,,2013-05-10 00:52:00,
2013-05-09 20:01:00,72.0,62.0,29.89,South,173,0.0,1.0,70,0.00,,,0.02,,2013-05-10 01:01:00,
2013-05-09 20:11:00,72.0,62.0,29.89,South,173,0.0,1.0,70,0.00,,,0.02,,2013-05-10 01:11:00,
2013-05-09 20:21:00,73.0,60.0,29.89,SW,216,0.0,0.0,63,0.00,,,0.02,,2013-05-10 01:21:00,
2013-05-09 20:31:00,72.0,60.0,29.91,SW,219,0.0,0.0,65,0.00,,,0.02,,2013-05-10 01:31:00,
2013-05-09 20:42:00,72.0,60.0,29.91,SW,219,0.0,0.0,65,0.00,,,0.02,,2013-05-10 01:42:00,
2013-05-09 20:52:00,72.0,60.0,29.91,SW,219,0.0,0.0,65,0.00,,,0.02,,2013-05-10 01:52:00,
2013-05-09 21:01:00,71.0,60.0,29.91,SSW,200,0.0,0.0,68,0.00,,,0.02,,2013-05-10 02:01:00,
2013-05-09 21:11:00,71.0,60.0,29.91,SSW,200,0.0,0.0,68,0.00,,,0.02,,2013-05-10 02:11:00,
2013-05-09 21:21:00,70.0,60.0,29.92,SSW,196,0.0,0.0,70,0.00,,,0.02,,2013-05-10 02:21:00,
2013-05-09 21:32:00,69.0,60.0,29.93,SSW,192,0.0,0.0,73,0.00,,,0.02,,2013-05-10 02:32:00,
2013-05-09 21:42:00,69.0,60.0,29.92,SSW,194,0.0,0.0,73,0.00,,,0.02,,2013-05-10 02:42:00,
2013-05-09 21:52:00,69.0,60.0,29.92,SSW,194,0.0,0.0,73,0.00,,,0.02,,2013-05-10 02:52:00,
2013-05-09 22:01:00,68.0,59.0,29.94,SW,214,0.0,1.0,74,0.00,,,0.02,,2013-05-10 03:01:00,
2013-05-09 22:11:00,68.0,59.0,29.94,SW,214,0.0,1.0,74,0.00,,,0.02,,2013-05-10 03:11:00,
2013-05-09 22:21:00,69.0,60.0,29.94,SSW,205,0.0,2.0,73,0.00,,,0.02,,2013-05-10 03:21:00,
2013-05-09 22:33:00,68.0,60.0,29.93,South,188,0.0,0.0,76,0.00,,,0.02,,2013-05-10 03:33:00,
2013-05-09 22:43:00,68.0,60.0,29.93,South,188,0.0,0.0,76,0.00,,,0.02,,2013-05-10 03:43:00,
2013-05-09 22:52:00,67.0,60.0,29.93,South,187,0.0,0.0,79,0.00,,,0.02,,2013-05-10 03:52:00,
2013-05-09 23:03:00,66.0,59.0,29.93,SSW,211,0.0,0.0,79,0.00,,,0.02,,2013-05-10 04:03:00,
2013-05-09 23:12:00,66.0,59.0,29.93,SSW,211,0.0,0.0,79,0.00,,,0.02,,2013-05-10 04:12:00,
2013-05-09 23:23:00,66.0,60.0,29.93,SSW,211,0.0,0.0,81,0.00,,,0.02,,2013-05-10 04:23:00,
2013-05-09 23:33:00,65.0,59.0,29.93,SSW,211,0.0,0.0,81,0.00,,,0.02,,2013-05-10 04:33:00,
2013-05-09 23:43:00,65.0,59.0,29.93,SSW,211,0.0,0.0,82,0.00,,,0.02,,2013-05-10 04:43:00,
2013-05-09 23:52:00,65.0,59.0,29.93,SSW,211,0.0,0.0,82,0.00,,,0.02,,2013-05-10 04:52:00,